Time;durP1;ratioP1;P1;durP2;ratioP2;P2;SDS_P1;SDS_P2;PMS_P1;PMS_P2;Temp;Humidity;BMP_temperature;BMP_pressure;BME280_temperature;BME280_humidity;BME280_pressure;Samples;Min_cycle;Max_cycle;Signal;HPM_P1;HPM_P2
2023/11/26 00:01:33;;;;;;;3.10;2.45;;;4.90;99.90;;;;;;4955734;28;20228;-81
2023/11/26 00:04:00;;;;;;;2.60;2.10;;;4.90;99.90;;;;;;4954635;29;20254;-80
2023/11/26 00:06:28;;;;;;;2.78;1.90;;;4.90;99.90;;;;;;4955405;29;20625;-80
2023/11/26 00:08:55;;;;;;;4.38;2.65;;;4.90;99.90;;;;;;4954391;29;20224;-80
2023/11/26 00:11:23;;;;;;;3.03;2.33;;;4.90;99.90;;;;;;4955215;28;20247;-80
2023/11/26 00:13:50;;;;;;;4.60;2.85;;;4.90;99.90;;;;;;4955232;29;20235;-80
2023/11/26 00:16:17;;;;;;;6.40;3.00;;;4.90;99.90;;;;;;4955471;29;20231;-81
2023/11/26 00:18:47;;;;;;;5.38;3.33;;;4.90;99.90;;;;;;4954701;29;20219;-81
2023/11/26 00:21:14;;;;;;;5.32;2.67;;;4.90;99.90;;;;;;4955512;29;20263;-81
2023/11/26 00:23:43;;;;;;;4.82;2.88;;;4.90;99.90;;;;;;4954516;28;20248;-81
2023/11/26 00:26:10;;;;;;;7.13;3.20;;;4.80;99.90;;;;;;4955250;29;20677;-81
2023/11/26 00:28:38;;;;;;;5.57;3.70;;;4.80;99.90;;;;;;4955425;29;20232;-80
2023/11/26 00:31:05;;;;;;;6.18;5.05;;;4.90;99.90;;;;;;4954839;29;20710;-80
2023/11/26 00:33:32;;;;;;;6.50;5.20;;;4.80;99.90;;;;;;4955283;28;20283;-80
2023/11/26 00:35:59;;;;;;;11.10;8.57;;;4.80;99.90;;;;;;4954594;29;20564;-80
2023/11/26 00:38:26;;;;;;;7.63;5.78;;;4.80;99.90;;;;;;4955178;29;20291;-80
2023/11/26 00:40:53;;;;;;;5.80;3.85;;;4.80;99.90;;;;;;4954748;29;20224;-80
2023/11/26 00:43:20;;;;;;;7.32;3.40;;;4.80;99.90;;;;;;4955353;28;20555;-81
2023/11/26 00:45:49;;;;;;;4.47;3.08;;;4.80;99.90;;;;;;4954489;29;20228;-81
2023/11/26 00:48:16;;;;;;;3.75;2.58;;;4.80;99.90;;;;;;4955220;29;20264;-80
2023/11/26 00:50:43;;;;;;;2.83;2.55;;;4.80;99.90;;;;;;4954810;29;20244;-81
2023/11/26 00:53:10;;;;;;;3.72;3.08;;;4.80;99.90;;;;;;4954877;28;20248;-80
2023/11/26 00:55:37;;;;;;;3.13;2.80;;;4.80;99.90;;;;;;4958099;29;20294;-80
2023/11/26 00:58:22;;;;;;;3.33;2.88;;;4.80;99.90;;;;;;4958372;29;20228;-79
2023/11/26 01:00:50;;;;;;;5.07;2.63;;;4.80;99.90;;;;;;4957946;29;20227;-79
2023/11/26 01:03:18;;;;;;;5.30;2.20;;;4.80;99.90;;;;;;4958389;28;20294;-79
2023/11/26 01:05:46;;;;;;;4.38;2.95;;;4.80;99.90;;;;;;4958066;29;20263;-80
2023/11/26 01:08:14;;;;;;;5.03;2.55;;;4.80;99.90;;;;;;4958548;29;20306;-79
2023/11/26 01:10:41;;;;;;;3.88;2.35;;;4.80;99.90;;;;;;4958325;29;20235;-80
2023/11/26 01:13:08;;;;;;;2.80;1.90;;;4.80;99.90;;;;;;4957659;28;20232;-80
2023/11/26 01:15:37;;;;;;;2.30;2.10;;;4.80;99.90;;;;;;4958136;29;20309;-79
2023/11/26 01:18:05;;;;;;;3.92;2.40;;;4.80;99.90;;;;;;4957814;29;20550;-80
2023/11/26 01:20:32;;;;;;;4.13;2.78;;;4.80;99.90;;;;;;4958397;29;20238;-80
2023/11/26 01:23:01;;;;;;;3.35;2.83;;;4.70;99.90;;;;;;4957174;28;20694;-79
2023/11/26 01:25:28;;;;;;;2.63;2.28;;;4.80;99.90;;;;;;4957992;29;20228;-80
2023/11/26 01:27:55;;;;;;;2.60;2.25;;;4.70;99.90;;;;;;4957555;29;20224;-80
2023/11/26 01:30:22;;;;;;;2.80;2.45;;;4.70;99.90;;;;;;4957636;29;20251;-80
2023/11/26 01:32:49;;;;;;;2.63;2.05;;;4.70;99.90;;;;;;4957560;28;20327;-80
2023/11/26 01:35:19;;;;;;;2.60;2.40;;;4.70;99.90;;;;;;4957943;29;20536;-80
2023/11/26 01:37:46;;;;;;;2.70;2.20;;;4.80;99.90;;;;;;4957860;29;20268;-80
2023/11/26 01:40:13;;;;;;;5.68;3.13;;;4.80;99.90;;;;;;4957312;29;20224;-79
2023/11/26 01:42:43;;;;;;;2.63;2.38;;;4.80;99.90;;;;;;4957271;28;20569;-80
2023/11/26 01:45:11;;;;;;;2.85;2.40;;;4.80;99.90;;;;;;4957314;29;20228;-79
2023/11/26 01:47:40;;;;;;;2.70;2.08;;;4.70;99.90;;;;;;4957600;29;20686;-80
2023/11/26 01:50:09;;;;;;;3.20;2.00;;;4.70;99.90;;;;;;4957314;29;20271;-80
2023/11/26 01:52:38;;;;;;;2.65;2.10;;;4.70;99.90;;;;;;4957394;28;20236;-79
2023/11/26 01:55:06;;;;;;;2.42;2.00;;;4.70;99.90;;;;;;4957348;29;20306;-80
2023/11/26 01:57:33;;;;;;;2.22;2.03;;;4.70;99.90;;;;;;4957432;29;20263;-80
2023/11/26 02:00:01;;;;;;;1.52;1.40;;;4.70;99.90;;;;;;4956940;29;20263;-80
2023/11/26 02:02:32;;;;;;;1.20;1.10;;;4.70;99.90;;;;;;4957531;28;20236;-79
2023/11/26 02:04:59;;;;;;;1.77;1.63;;;4.70;99.90;;;;;;4956700;28;20596;-79
2023/11/26 02:07:28;;;;;;;1.80;1.40;;;4.70;99.90;;;;;;4957910;29;20224;-79
2023/11/26 02:09:56;;;;;;;1.42;1.33;;;4.70;99.90;;;;;;4956903;29;20220;-79
2023/11/26 02:12:23;;;;;;;1.50;1.15;;;4.60;99.90;;;;;;4957362;28;20232;-80
2023/11/26 02:14:50;;;;;;;2.63;1.48;;;4.60;99.90;;;;;;4957003;29;20220;-80
2023/11/26 02:17:17;;;;;;;1.50;1.40;;;4.70;99.90;;;;;;4956856;29;20226;-80
2023/11/26 02:19:45;;;;;;;1.85;1.52;;;4.60;99.90;;;;;;4957202;29;20236;-80
2023/11/26 02:22:12;;;;;;;4.50;1.70;;;4.60;99.90;;;;;;4956626;28;20232;-80
2023/11/26 02:24:42;;;;;;;1.60;1.40;;;4.60;99.90;;;;;;4957115;29;20224;-80
2023/11/26 02:27:09;;;;;;;2.00;1.35;;;4.60;99.90;;;;;;4956678;29;20291;-80
2023/11/26 02:29:36;;;;;;;1.60;1.50;;;4.60;99.90;;;;;;4956965;29;20323;-80
2023/11/26 02:32:03;;;;;;;3.83;1.50;;;4.60;99.90;;;;;;4956224;28;20235;-80
2023/11/26 02:34:30;;;;;;;2.08;1.48;;;4.60;99.90;;;;;;4956772;29;20228;-79
2023/11/26 02:36:58;;;;;;;1.90;1.40;;;4.60;99.90;;;;;;4956022;29;20224;-79
2023/11/26 02:39:28;;;;;;;1.70;1.45;;;4.60;99.90;;;;;;4956968;29;20565;-79
2023/11/26 02:41:58;;;;;;;2.22;1.60;;;4.60;99.90;;;;;;4956175;28;20357;-80
2023/11/26 02:44:24;;;;;;;2.08;1.65;;;4.60;99.90;;;;;;4956575;29;20224;-80
2023/11/26 02:46:52;;;;;;;1.70;1.60;;;4.60;99.90;;;;;;4956595;29;20224;-80
2023/11/26 02:49:19;;;;;;;1.77;1.50;;;4.60;99.90;;;;;;4955865;29;20231;-80
2023/11/26 02:51:46;;;;;;;1.60;1.50;;;4.60;99.90;;;;;;4956208;28;20239;-79
2023/11/26 02:54:13;;;;;;;3.25;1.25;;;4.60;99.90;;;;;;4956105;29;20236;-80
2023/11/26 02:56:43;;;;;;;2.38;1.58;;;4.60;99.90;;;;;;4956429;29;20234;-79
2023/11/26 02:59:12;;;;;;;1.83;1.65;;;4.60;99.90;;;;;;4955559;29;20298;-80
2023/11/26 03:01:40;;;;;;;1.70;1.45;;;4.60;99.90;;;;;;4956299;28;20311;-80
2023/11/26 03:04:10;;;;;;;1.40;1.30;;;4.50;99.90;;;;;;4956001;29;20231;-79
2023/11/26 03:06:38;;;;;;;1.67;1.58;;;4.50;99.90;;;;;;4956147;29;20223;-80
2023/11/26 03:09:19;;;;;;;1.40;1.30;;;4.50;99.90;;;;;;4955768;29;20236;-79
2023/11/26 03:14:32;;;;;;;1.70;1.38;;;4.50;99.90;;;;;;4955882;29;20239;-80
2023/11/26 03:16:59;;;;;;;1.88;1.55;;;4.50;99.90;;;;;;4955488;28;20609;-79
2023/11/26 03:19:26;;;;;;;1.65;1.40;;;4.50;99.90;;;;;;4955618;29;20670;-79
2023/11/26 03:21:54;;;;;;;1.77;1.50;;;4.50;99.90;;;;;;4955953;28;20227;-80
2023/11/26 03:24:21;;;;;;;2.03;1.40;;;4.50;99.90;;;;;;4955500;29;20227;-80
2023/11/26 03:26:49;;;;;;;1.63;1.52;;;4.50;99.90;;;;;;4955869;29;20286;-80
2023/11/26 03:29:17;;;;;;;1.98;1.75;;;4.50;99.90;;;;;;4955161;29;20611;-80
2023/11/26 03:31:47;;;;;;;1.73;1.50;;;4.50;99.90;;;;;;4955902;28;20299;-80
2023/11/26 03:34:14;;;;;;;2.00;1.50;;;4.50;99.90;;;;;;4955304;29;20242;-80
2023/11/26 03:36:41;;;;;;;1.80;1.65;;;4.50;99.90;;;;;;4958268;29;20312;-79
2023/11/26 03:39:08;;;;;;;1.80;1.25;;;4.50;99.90;;;;;;4955859;29;20310;-79
2023/11/26 03:41:35;;;;;;;1.95;1.13;;;4.50;99.90;;;;;;4955158;28;20231;-80
2023/11/26 03:44:02;;;;;;;4.10;1.80;;;4.50;99.90;;;;;;4956816;29;20224;-79
2023/11/26 03:46:32;;;;;;;1.52;1.42;;;4.50;99.90;;;;;;4947943;29;20675;-79
2023/11/26 03:49:02;;;;;;;4.03;2.45;;;4.50;99.90;;;;;;4955679;29;20682;-80
2023/11/26 03:51:30;;;;;;;2.47;1.90;;;4.50;99.90;;;;;;4953970;28;20239;-80
2023/11/26 03:53:57;;;;;;;4.13;1.95;;;4.50;99.90;;;;;;4957308;28;20243;-80
2023/11/26 03:56:24;;;;;;;1.90;1.25;;;4.50;99.90;;;;;;4955057;29;20569;-80
2023/11/26 03:58:51;;;;;;;1.40;1.30;;;4.50;99.90;;;;;;4955408;29;20307;-80
2023/11/26 04:01:18;;;;;;;2.08;1.73;;;4.60;99.90;;;;;;4955340;29;20242;-80
2023/11/26 04:03:46;;;;;;;2.58;1.50;;;4.50;99.90;;;;;;4955729;28;20230;-80
2023/11/26 04:06:14;;;;;;;1.73;1.63;;;4.60;99.90;;;;;;4955299;29;20678;-79
2023/11/26 04:08:41;;;;;;;1.70;1.30;;;4.60;99.90;;;;;;4955283;29;20666;-80
2023/11/26 04:11:08;;;;;;;3.42;1.48;;;4.60;99.90;;;;;;4955474;29;20315;-79
2023/11/26 04:13:36;;;;;;;2.55;1.80;;;4.60;99.90;;;;;;4955186;28;20231;-80
2023/11/26 04:16:04;;;;;;;2.55;1.95;;;4.60;99.90;;;;;;4955690;29;20232;-79
2023/11/26 04:18:31;;;;;;;1.48;1.38;;;4.60;99.90;;;;;;4954949;29;20220;-80
2023/11/26 04:20:58;;;;;;;2.15;1.95;;;4.60;99.90;;;;;;4955763;29;20224;-80
2023/11/26 04:23:27;;;;;;;5.22;2.25;;;4.60;99.90;;;;;;4955262;28;20243;-80
2023/11/26 04:25:54;;;;;;;3.92;1.92;;;4.60;99.90;;;;;;4955593;29;20228;-80
2023/11/26 04:28:21;;;;;;;1.70;1.60;;;4.60;99.90;;;;;;4955313;28;20227;-80
2023/11/26 04:30:48;;;;;;;2.17;1.85;;;4.70;99.90;;;;;;4959080;29;20694;-80
2023/11/26 04:33:18;;;;;;;2.35;1.90;;;4.60;99.90;;;;;;4958506;28;20302;-80
2023/11/26 04:35:45;;;;;;;2.67;1.52;;;4.70;99.90;;;;;;4958868;29;20696;-80
2023/11/26 04:38:12;;;;;;;1.92;1.70;;;4.70;99.90;;;;;;4959157;29;20686;-80
2023/11/26 04:40:40;;;;;;;2.97;2.10;;;4.70;99.90;;;;;;4958822;29;20239;-80
2023/11/26 04:43:07;;;;;;;3.50;2.30;;;4.60;99.90;;;;;;4958888;28;20251;-80
2023/11/26 04:45:34;;;;;;;3.63;2.42;;;4.60;99.90;;;;;;4958146;29;20733;-78
2023/11/26 04:48:01;;;;;;;3.58;2.40;;;4.60;99.90;;;;;;4958786;29;20220;-80
2023/11/26 04:50:28;;;;;;;5.50;3.10;;;4.60;99.90;;;;;;4958519;29;20251;-80
2023/11/26 04:52:56;;;;;;;2.60;2.00;;;4.60;99.90;;;;;;4959029;28;20713;-79
2023/11/26 04:55:24;;;;;;;2.63;2.42;;;4.60;99.90;;;;;;4958508;29;20236;-81
2023/11/26 04:57:52;;;;;;;2.63;2.42;;;4.60;99.90;;;;;;4958745;29;20228;-81
2023/11/26 05:00:21;;;;;;;2.70;2.10;;;4.60;99.90;;;;;;4958561;29;20736;-80
2023/11/26 05:02:50;;;;;;;2.03;1.58;;;4.70;99.90;;;;;;4958547;28;20307;-80
2023/11/26 05:05:17;;;;;;;2.00;1.80;;;4.70;99.90;;;;;;4958534;29;20571;-81
2023/11/26 05:07:44;;;;;;;1.77;1.67;;;4.70;99.90;;;;;;4957945;29;20235;-80
2023/11/26 05:10:11;;;;;;;1.75;1.65;;;4.70;99.90;;;;;;4958675;29;20251;-80
2023/11/26 05:12:38;;;;;;;2.08;1.75;;;4.70;99.90;;;;;;4957837;28;20242;-80
2023/11/26 05:15:08;;;;;;;2.78;2.45;;;4.70;99.90;;;;;;4957960;29;20235;-80
2023/11/26 05:17:35;;;;;;;2.45;2.13;;;4.60;99.90;;;;;;4958064;29;20232;-80
2023/11/26 05:20:02;;;;;;;2.55;2.35;;;4.60;99.90;;;;;;4958187;29;20239;-80
2023/11/26 05:22:29;;;;;;;2.38;2.17;;;4.60;99.90;;;;;;4957741;28;20286;-80
2023/11/26 05:24:56;;;;;;;2.63;2.45;;;4.60;99.90;;;;;;4958185;29;20231;-80
2023/11/26 05:27:23;;;;;;;2.08;1.88;;;4.60;99.90;;;;;;4958692;29;20548;-80
2023/11/26 05:29:50;;;;;;;1.90;1.70;;;4.60;99.90;;;;;;4958216;29;20298;-80
2023/11/26 05:32:19;;;;;;;1.58;1.48;;;4.60;99.90;;;;;;4959466;28;20228;-80
2023/11/26 05:34:48;;;;;;;1.73;1.50;;;4.60;99.90;;;;;;4957680;29;20754;-80
2023/11/26 05:37:15;;;;;;;2.20;2.00;;;4.60;99.90;;;;;;4959508;29;20232;-81
2023/11/26 05:39:42;;;;;;;2.20;2.00;;;4.60;99.90;;;;;;4958702;28;20239;-81
2023/11/26 05:42:10;;;;;;;2.50;2.30;;;4.60;99.90;;;;;;4958575;28;20247;-80
2023/11/26 05:44:37;;;;;;;3.13;2.15;;;4.50;99.90;;;;;;4956966;29;20228;-80
2023/11/26 05:47:07;;;;;;;3.17;2.03;;;4.50;99.90;;;;;;4957843;29;20228;-80
2023/11/26 05:49:36;;;;;;;2.08;1.85;;;4.50;99.90;;;;;;4957195;29;20240;-81
2023/11/26 05:52:03;;;;;;;2.00;1.90;;;4.50;99.90;;;;;;4957982;28;20295;-79
2023/11/26 05:54:30;;;;;;;2.40;2.20;;;4.50;99.90;;;;;;4957657;28;20243;-81
2023/11/26 05:56:57;;;;;;;3.65;2.42;;;4.50;99.90;;;;;;4958100;29;20239;-80
2023/11/26 05:59:24;;;;;;;2.20;2.00;;;4.50;99.90;;;;;;4957871;29;20236;-80
2023/11/26 06:01:52;;;;;;;2.35;2.15;;;4.50;99.90;;;;;;4956894;28;20606;-80
2023/11/26 06:04:19;;;;;;;3.28;2.88;;;4.50;99.90;;;;;;4957735;29;20236;-80
2023/11/26 06:06:47;;;;;;;2.70;2.50;;;4.40;99.90;;;;;;4956766;29;20228;-80
2023/11/26 06:09:14;;;;;;;2.47;2.28;;;4.40;99.90;;;;;;4957615;29;20236;-80
2023/11/26 06:11:41;;;;;;;2.67;2.47;;;4.40;99.90;;;;;;4956290;28;20230;-79
2023/11/26 06:14:08;;;;;;;2.65;2.33;;;4.40;99.90;;;;;;4957530;29;20315;-80
2023/11/26 06:16:35;;;;;;;3.75;3.42;;;4.40;99.90;;;;;;4956861;29;20570;-80
2023/11/26 06:19:02;;;;;;;2.83;2.63;;;4.40;99.90;;;;;;4957468;29;20232;-80
2023/11/26 06:21:29;;;;;;;2.95;2.75;;;4.40;99.90;;;;;;4957043;28;20236;-80
2023/11/26 06:23:58;;;;;;;3.08;2.78;;;4.40;99.90;;;;;;4956188;29;20224;-80
2023/11/26 06:26:25;;;;;;;3.08;2.78;;;4.40;99.90;;;;;;4957403;29;20690;-79
2023/11/26 06:28:52;;;;;;;3.20;2.75;;;4.40;99.90;;;;;;4956045;29;20573;-79
2023/11/26 06:31:21;;;;;;;3.65;2.83;;;4.40;99.90;;;;;;4956958;29;20231;-79
2023/11/26 06:33:48;;;;;;;3.17;2.80;;;4.30;99.90;;;;;;4956020;29;20228;-80
2023/11/26 06:36:19;;;;;;;3.58;2.83;;;4.30;99.90;;;;;;4957177;29;20239;-79
2023/11/26 06:38:46;;;;;;;2.70;2.50;;;4.30;99.90;;;;;;4956424;29;20616;-80
2023/11/26 06:41:24;;;;;;;9.13;3.00;;;4.30;99.90;;;;;;4956669;29;20232;-79
2023/11/26 06:43:51;;;;;;;3.28;2.88;;;4.30;99.90;;;;;;4956080;29;20262;-79
2023/11/26 06:46:29;;;;;;;3.75;2.85;;;4.20;99.90;;;;;;4956913;29;20291;-79
2023/11/26 06:48:57;;;;;;;2.83;2.63;;;4.20;99.90;;;;;;4958593;29;20232;-79
2023/11/26 06:51:30;;;;;;;3.47;2.83;;;4.20;99.90;;;;;;4965093;28;20220;-79
2023/11/26 06:53:59;;;;;;;3.78;2.90;;;4.20;99.90;;;;;;4963464;28;20674;-79
2023/11/26 06:56:35;;;;;;;3.00;2.80;;;4.20;99.90;;;;;;4964304;29;20640;-79
2023/11/26 06:59:02;;;;;;;2.60;2.40;;;4.10;99.90;;;;;;4956459;29;20239;-79
2023/11/26 07:01:31;;;;;;;5.65;4.78;;;4.10;99.90;;;;;;4956743;28;20224;-80
2023/11/26 07:03:59;;;;;;;5.57;4.90;;;4.10;99.90;;;;;;4959378;29;20228;-79
2023/11/26 07:06:26;;;;;;;5.05;4.55;;;4.10;99.90;;;;;;4957008;29;20228;-79
2023/11/26 07:08:53;;;;;;;4.50;4.10;;;4.10;99.90;;;;;;4956555;29;20235;-79
2023/11/26 07:11:23;;;;;;;5.82;4.25;;;4.10;99.90;;;;;;4957534;29;20239;-80
2023/11/26 07:13:52;;;;;;;4.32;3.95;;;4.00;99.90;;;;;;4956082;29;20242;-79
2023/11/26 07:16:20;;;;;;;4.78;4.28;;;4.00;99.90;;;;;;4955936;29;20232;-79
2023/11/26 07:18:49;;;;;;;5.22;4.70;;;4.00;99.90;;;;;;4955639;29;20232;-80
2023/11/26 07:21:16;;;;;;;4.28;3.85;;;4.00;99.90;;;;;;4955765;29;20733;-80
2023/11/26 07:23:44;;;;;;;5.88;4.60;;;3.90;99.90;;;;;;4955328;28;20239;-80
2023/11/26 07:26:12;;;;;;;4.90;4.50;;;3.90;99.90;;;;;;4956228;29;20699;-81
2023/11/26 07:28:53;;;;;;;5.65;4.80;;;4.00;99.90;;;;;;4955964;29;20252;-80
2023/11/26 07:31:28;;;;;;;5.40;4.90;;;3.90;99.90;;;;;;4956641;28;20255;-80
2023/11/26 07:33:56;;;;;;;4.53;4.10;;;3.90;99.90;;;;;;4955436;29;20228;-80
2023/11/26 07:36:23;;;;;;;6.40;5.20;;;3.90;99.90;;;;;;4955895;29;20232;-80
2023/11/26 07:38:55;;;;;;;7.07;6.38;;;3.90;99.90;;;;;;4956466;29;20319;-81
2023/11/26 07:41:23;;;;;;;9.93;8.07;;;3.80;99.90;;;;;;4955795;28;20256;-80
2023/11/26 07:43:51;;;;;;;6.50;5.68;;;3.80;99.90;;;;;;4955845;29;20236;-80
2023/11/26 07:46:21;;;;;;;4.80;4.35;;;3.80;99.90;;;;;;4955570;29;20238;-81
2023/11/26 07:48:49;;;;;;;3.85;3.53;;;3.80;99.90;;;;;;4955186;29;20319;-80
2023/11/26 07:51:16;;;;;;;3.60;2.97;;;3.80;99.90;;;;;;4955580;29;20224;-81
2023/11/26 07:53:44;;;;;;;3.53;3.25;;;3.80;99.90;;;;;;4955299;28;20565;-81
2023/11/26 07:56:11;;;;;;;5.63;4.00;;;3.80;99.90;;;;;;4954855;29;20228;-80
2023/11/26 07:58:38;;;;;;;5.20;4.13;;;3.70;99.90;;;;;;4955393;29;20248;-80
2023/11/26 08:01:07;;;;;;;3.95;3.17;;;3.70;99.90;;;;;;4955524;29;20611;-80
2023/11/26 08:03:35;;;;;;;3.45;2.90;;;3.70;99.90;;;;;;4955236;28;20286;-80
2023/11/26 08:06:07;;;;;;;3.50;3.20;;;3.70;99.90;;;;;;4955917;29;20242;-80
2023/11/26 08:08:36;;;;;;;4.57;4.28;;;3.70;99.90;;;;;;4947376;29;20232;-80
2023/11/26 08:11:05;;;;;;;3.33;3.03;;;3.70;99.90;;;;;;4954665;29;20315;-80
2023/11/26 08:13:35;;;;;;;3.60;3.20;;;3.70;99.90;;;;;;4955671;28;20228;-81
2023/11/26 08:16:07;;;;;;;2.85;2.65;;;3.70;99.90;;;;;;4952452;29;20547;-81
2023/11/26 08:18:35;;;;;;;3.58;3.15;;;3.70;99.90;;;;;;4955178;29;20227;-81
2023/11/26 08:21:06;;;;;;;3.97;3.45;;;3.70;99.90;;;;;;4955428;29;20247;-79
2023/11/26 08:23:34;;;;;;;3.72;3.42;;;3.70;99.90;;;;;;4955318;28;20228;-80
2023/11/26 08:26:01;;;;;;;4.18;3.78;;;3.70;99.90;;;;;;4954309;29;20542;-79
2023/11/26 08:28:32;;;;;;;4.15;3.40;;;3.70;99.90;;;;;;4956413;29;20286;-79
2023/11/26 08:30:59;;;;;;;3.80;3.47;;;3.70;99.90;;;;;;4957030;29;20223;-79
2023/11/26 08:33:30;;;;;;;3.60;3.30;;;3.70;99.90;;;;;;4955682;28;20236;-80
2023/11/26 08:36:02;;;;;;;3.75;3.28;;;3.70;99.90;;;;;;4955766;29;20741;-80
2023/11/26 08:38:34;;;;;;;3.40;3.10;;;3.70;99.90;;;;;;4946563;29;20235;-79
2023/11/26 08:41:05;;;;;;;4.20;3.00;;;3.70;99.90;;;;;;4955672;29;20231;-81
2023/11/26 08:44:10;;;;;;;2.95;2.75;;;3.70;99.90;;;;;;4955514;28;20232;-80
2023/11/26 08:46:49;;;;;;;3.20;2.90;;;3.70;99.90;;;;;;4933051;28;20223;-81
2023/11/26 08:49:23;;;;;;;2.80;2.60;;;3.70;99.90;;;;;;4953878;29;20255;-80
2023/11/26 08:51:51;;;;;;;3.95;3.65;;;3.80;99.90;;;;;;4955716;28;20553;-81
2023/11/26 08:54:21;;;;;;;4.28;3.88;;;3.80;99.90;;;;;;4955716;28;20240;-81
2023/11/26 08:56:50;;;;;;;5.30;4.75;;;3.80;99.90;;;;;;4955923;29;20236;-81
2023/11/26 08:59:18;;;;;;;7.18;6.00;;;3.80;99.90;;;;;;4956480;29;20228;-81
2023/11/26 09:01:46;;;;;;;4.50;4.03;;;3.80;99.90;;;;;;4955805;28;20706;-81
2023/11/26 09:04:14;;;;;;;4.70;3.90;;;3.80;99.90;;;;;;4956550;29;20315;-80
2023/11/26 09:06:43;;;;;;;7.68;5.85;;;3.90;99.90;;;;;;4954930;29;20533;-81
2023/11/26 09:09:12;;;;;;;4.95;4.43;;;3.90;99.90;;;;;;4955813;29;20671;-80
2023/11/26 09:11:40;;;;;;;5.70;5.05;;;3.90;99.90;;;;;;4955993;28;20232;-80
2023/11/26 09:14:08;;;;;;;6.20;4.82;;;4.00;99.90;;;;;;4955162;28;20231;-80
2023/11/26 09:16:36;;;;;;;4.30;3.80;;;4.00;99.90;;;;;;4957903;29;20224;-80
2023/11/26 09:19:04;;;;;;;4.60;4.10;;;4.00;99.90;;;;;;4958297;29;20247;-80
2023/11/26 09:21:34;;;;;;;8.05;6.10;;;4.10;99.90;;;;;;4958749;28;20228;-80
2023/11/26 09:24:01;;;;;;;5.03;4.50;;;4.10;99.90;;;;;;4958782;29;20310;-80
2023/11/26 09:26:38;;;;;;;3.33;3.03;;;4.10;99.90;;;;;;4961590;29;20231;-80
2023/11/26 09:29:08;;;;;;;2.97;2.78;;;4.10;99.90;;;;;;4957894;29;20219;-80
2023/11/26 09:31:41;;;;;;;4.50;3.70;;;4.20;99.90;;;;;;4958465;28;20231;-80
2023/11/26 09:34:09;;;;;;;6.70;3.78;;;4.20;99.90;;;;;;4958640;29;20232;-80
2023/11/26 09:36:36;;;;;;;3.65;2.70;;;4.20;99.90;;;;;;4958439;29;20228;-80
2023/11/26 09:39:03;;;;;;;3.28;2.50;;;4.20;99.90;;;;;;4957846;29;20313;-80
2023/11/26 09:41:30;;;;;;;2.97;2.20;;;4.30;99.90;;;;;;4958418;28;20231;-79
2023/11/26 09:43:57;;;;;;;2.92;2.60;;;4.30;99.90;;;;;;4958701;29;20311;-79
2023/11/26 09:46:27;;;;;;;5.22;4.72;;;4.30;99.90;;;;;;4958563;29;20247;-80
2023/11/26 09:48:54;;;;;;;5.00;4.55;;;4.30;99.90;;;;;;4957960;29;20224;-80
2023/11/26 09:51:24;;;;;;;4.57;3.00;;;4.40;99.90;;;;;;4959017;29;20287;-80
2023/11/26 09:53:52;;;;;;;3.60;3.25;;;4.30;99.90;;;;;;4960169;28;20251;-81
2023/11/26 09:56:19;;;;;;;8.93;3.15;;;4.40;99.90;;;;;;4959562;29;20235;-80
2023/11/26 09:58:47;;;;;;;4.63;3.15;;;4.40;99.90;;;;;;4959120;29;20295;-81
2023/11/26 10:01:14;;;;;;;3.75;3.40;;;4.40;99.90;;;;;;4958829;29;20227;-80
2023/11/26 10:04:04;;;;;;;4.03;3.40;;;4.40;99.90;;;;;;4958883;28;20613;-81
2023/11/26 10:06:32;;;;;;;3.55;3.25;;;4.40;99.90;;;;;;4958693;29;20238;-81
2023/11/26 10:09:00;;;;;;;4.05;3.40;;;4.40;99.90;;;;;;4959195;29;20236;-81
2023/11/26 10:11:28;;;;;;;4.13;3.70;;;4.40;99.90;;;;;;4958659;28;20227;-80
2023/11/26 10:13:56;;;;;;;4.40;3.78;;;4.40;99.90;;;;;;4958767;29;20294;-80
2023/11/26 10:16:34;;;;;;;5.78;4.63;;;4.40;99.90;;;;;;4958145;29;20224;-80
2023/11/26 10:19:03;;;;;;;6.38;5.07;;;4.40;99.90;;;;;;4958683;29;20307;-80
2023/11/26 10:21:51;;;;;;;8.40;5.20;;;4.40;99.90;;;;;;4958754;28;20563;-79
2023/11/26 10:24:21;;;;;;;6.10;4.55;;;4.40;99.90;;;;;;4959022;29;20220;-81
2023/11/26 10:26:50;;;;;;;5.50;3.95;;;4.40;99.90;;;;;;4957859;28;20224;-80
2023/11/26 10:29:20;;;;;;;5.53;4.30;;;4.40;99.90;;;;;;4958253;29;20263;-79
2023/11/26 10:32:03;;;;;;;6.95;4.15;;;4.40;99.90;;;;;;4958450;28;20228;-80
2023/11/26 10:34:34;;;;;;;4.35;3.92;;;4.40;99.90;;;;;;4958618;29;20236;-80
2023/11/26 10:37:02;;;;;;;4.03;3.28;;;4.40;99.90;;;;;;4958357;29;20224;-79
2023/11/26 10:39:30;;;;;;;2.92;2.58;;;4.40;99.90;;;;;;4957662;29;20250;-80
2023/11/26 10:41:57;;;;;;;2.67;2.47;;;4.50;99.90;;;;;;4949372;29;20345;-80
2023/11/26 10:44:28;;;;;;;4.07;3.00;;;4.50;99.90;;;;;;4958229;29;20567;-82
2023/11/26 10:47:01;;;;;;;4.75;4.00;;;4.60;99.90;;;;;;4959961;29;20290;-81
2023/11/26 10:49:34;;;;;;;4.35;3.15;;;4.60;99.90;;;;;;4957498;29;20252;-79
2023/11/26 10:52:08;;;;;;;3.13;2.55;;;4.50;99.90;;;;;;4958229;28;20232;-79
2023/11/26 10:54:44;;;;;;;2.75;2.55;;;4.60;99.90;;;;;;4947974;29;20293;-81
2023/11/26 10:57:14;;;;;;;3.53;2.65;;;4.60;99.90;;;;;;4957520;29;20578;-80
2023/11/26 10:59:47;;;;;;;3.25;2.95;;;4.60;99.90;;;;;;4957495;29;20295;-80
2023/11/26 11:02:15;;;;;;;3.28;2.25;;;4.60;99.90;;;;;;4946315;28;20244;-80
2023/11/26 11:04:47;;;;;;;4.03;2.35;;;4.60;99.90;;;;;;4956161;29;20232;-81
2023/11/26 11:07:15;;;;;;;3.97;2.75;;;4.60;99.90;;;;;;4958220;29;20236;-80
2023/11/26 11:10:03;;;;;;;2.42;2.22;;;4.70;99.90;;;;;;4956879;29;20228;-80
2023/11/26 11:12:42;;;;;;;3.28;2.72;;;4.70;99.90;;;;;;4958031;28;20228;-81
2023/11/26 11:15:09;;;;;;;3.95;3.55;;;4.70;99.90;;;;;;4959255;29;20231;-80
2023/11/26 11:17:36;;;;;;;4.20;3.33;;;4.70;99.90;;;;;;4957596;29;20254;-80
2023/11/26 11:20:06;;;;;;;3.20;2.65;;;4.70;99.90;;;;;;4957803;29;20227;-80
2023/11/26 11:22:39;;;;;;;3.65;3.28;;;4.80;99.90;;;;;;4957696;28;20256;-80
2023/11/26 11:25:06;;;;;;;3.65;2.55;;;4.80;99.90;;;;;;4960894;29;20228;-79
2023/11/26 11:27:51;;;;;;;2.97;2.67;;;4.80;99.90;;;;;;4961467;29;20271;-81
2023/11/26 11:30:54;;;;;;;2.72;2.42;;;4.80;99.90;;;;;;4960033;29;20303;-81
2023/11/26 11:33:21;;;;;;;3.70;2.55;;;4.90;99.90;;;;;;4958358;28;20243;-80
2023/11/26 11:35:50;;;;;;;3.67;2.55;;;5.00;99.90;;;;;;4959167;29;20222;-80
2023/11/26 11:38:20;;;;;;;3.55;2.90;;;5.00;99.90;;;;;;4957289;28;20707;-80
2023/11/26 11:41:13;;;;;;;2.60;2.40;;;5.10;99.90;;;;;;4956385;29;20693;-80
2023/11/26 11:43:45;;;;;;;3.08;2.80;;;5.10;99.90;;;;;;4955555;28;20642;-80
2023/11/26 11:46:45;;;;;;;3.13;2.75;;;5.10;99.90;;;;;;4955561;29;20231;-79
2023/11/26 11:49:12;;;;;;;2.80;2.60;;;5.10;99.90;;;;;;4955904;29;20363;-80
2023/11/26 11:51:42;;;;;;;1.85;1.75;;;5.10;99.90;;;;;;4954689;28;20239;-80
2023/11/26 11:54:36;;;;;;;2.92;2.08;;;5.10;99.90;;;;;;4955990;28;20604;-81
2023/11/26 11:57:09;;;;;;;3.42;2.85;;;5.10;99.90;;;;;;4955648;29;20254;-81
2023/11/26 11:59:41;;;;;;;2.90;2.70;;;5.00;99.90;;;;;;4955883;29;20232;-80
2023/11/26 12:02:10;;;;;;;3.63;2.28;;;5.00;99.90;;;;;;4955156;28;20236;-81
2023/11/26 12:04:41;;;;;;;5.60;4.85;;;5.10;99.90;;;;;;4955420;29;20282;-80
2023/11/26 12:07:10;;;;;;;9.80;5.03;;;5.10;99.90;;;;;;4954972;29;20568;-81
2023/11/26 12:09:41;;;;;;;4.95;4.40;;;5.10;99.90;;;;;;4955506;29;20235;-81
2023/11/26 12:12:09;;;;;;;5.40;4.95;;;5.10;99.90;;;;;;4955217;28;20232;-81
2023/11/26 12:14:37;;;;;;;5.90;5.15;;;5.20;99.90;;;;;;4955592;29;20235;-81
2023/11/26 12:17:08;;;;;;;5.07;3.50;;;5.20;99.90;;;;;;4954551;29;20239;-81
2023/11/26 12:19:37;;;;;;;4.45;3.65;;;5.20;99.90;;;;;;4955691;29;20227;-81
2023/11/26 12:22:05;;;;;;;6.05;3.30;;;5.30;99.90;;;;;;4955099;28;20243;-80
2023/11/26 12:24:35;;;;;;;10.75;3.10;;;5.30;99.90;;;;;;4954864;29;20282;-81
2023/11/26 12:27:02;;;;;;;5.03;3.50;;;5.30;99.90;;;;;;4955203;29;20240;-79
2023/11/26 12:29:31;;;;;;;3.15;2.92;;;5.30;99.90;;;;;;4955441;29;20228;-80
2023/11/26 12:32:00;;;;;;;3.22;2.90;;;5.30;99.90;;;;;;4955625;28;20256;-80
2023/11/26 12:34:28;;;;;;;2.35;2.15;;;5.40;99.90;;;;;;4955116;29;20529;-81
2023/11/26 12:36:57;;;;;;;2.75;2.20;;;5.40;99.90;;;;;;4955456;29;20228;-81
2023/11/26 12:39:24;;;;;;;4.88;3.13;;;5.40;99.90;;;;;;4954792;29;20231;-81
2023/11/26 12:41:53;;;;;;;2.53;2.33;;;5.40;99.90;;;;;;4954843;28;20232;-81
2023/11/26 12:44:24;;;;;;;3.67;2.42;;;5.30;99.90;;;;;;4954880;29;20236;-80
2023/11/26 12:46:50;;;;;;;3.22;2.35;;;5.30;99.90;;;;;;4955046;29;20287;-79
2023/11/26 12:49:19;;;;;;;4.00;3.30;;;5.30;99.90;;;;;;4957414;28;20290;-81
2023/11/26 12:51:46;;;;;;;3.22;3.03;;;5.30;99.90;;;;;;4962769;28;20239;-80
2023/11/26 12:54:16;;;;;;;3.97;3.50;;;5.30;99.90;;;;;;4960368;28;20232;-80
2023/11/26 12:56:45;;;;;;;3.75;3.13;;;5.30;99.90;;;;;;4961945;29;20228;-80
2023/11/26 12:59:13;;;;;;;6.55;5.15;;;5.30;99.90;;;;;;4961500;29;20251;-80
2023/11/26 13:01:41;;;;;;;4.63;3.83;;;5.30;99.90;;;;;;4958477;28;20306;-81
2023/11/26 13:04:08;;;;;;;5.30;4.22;;;5.30;99.90;;;;;;4958969;29;20228;-80
2023/11/26 13:06:35;;;;;;;8.05;6.00;;;5.30;99.90;;;;;;4958014;29;20242;-81
2023/11/26 13:09:07;;;;;;;4.80;4.30;;;5.30;99.90;;;;;;4958820;29;20232;-81
2023/11/26 13:11:38;;;;;;;4.82;3.47;;;5.30;99.90;;;;;;4957764;28;20271;-80